Time;durP1;ratioP1;P1;durP2;ratioP2;P2;SDS_P1;SDS_P2;PMS_P1;PMS_P2;Temp;Humidity;BMP_temperature;BMP_pressure;BME280_temperature;BME280_humidity;BME280_pressure;Samples;Min_cycle;Max_cycle;Signal;HPM_P1;HPM_P2
2022/03/15 00:01:23;;;;;;;22.63;11.20;;;3.90;99.90;;;;;;5131395;27;20053;-80
2022/03/15 00:03:49;;;;;;;23.17;12.27;;;3.90;99.90;;;;;;5115577;27;20071;-80
2022/03/15 00:06:15;;;;;;;20.00;11.73;;;4.00;99.90;;;;;;5133614;27;20098;-80
2022/03/15 00:08:42;;;;;;;27.77;12.40;;;4.00;99.90;;;;;;5118796;27;20058;-80
2022/03/15 00:11:09;;;;;;;25.10;11.97;;;4.00;99.90;;;;;;5116222;27;20812;-80
2022/03/15 00:13:38;;;;;;;27.67;13.10;;;4.00;99.90;;;;;;5101177;27;20542;-80
2022/03/15 00:16:04;;;;;;;21.57;11.90;;;4.00;99.90;;;;;;5134478;27;20050;-80
2022/03/15 00:18:30;;;;;;;19.97;12.43;;;4.10;99.90;;;;;;5134986;27;20046;-80
2022/03/15 00:21:04;;;;;;;21.10;11.90;;;4.00;99.90;;;;;;5117043;27;20051;-80
2022/03/15 00:23:31;;;;;;;26.17;13.70;;;4.20;99.90;;;;;;5131252;27;20043;-80
2022/03/15 00:25:57;;;;;;;21.77;13.40;;;4.10;99.90;;;;;;5116549;27;20058;-80
2022/03/15 00:28:24;;;;;;;23.40;13.00;;;4.10;99.90;;;;;;5113595;27;20093;-80
2022/03/15 00:30:50;;;;;;;26.50;12.70;;;4.10;99.90;;;;;;5099728;27;20039;-80
2022/03/15 00:33:16;;;;;;;25.37;12.93;;;4.20;99.90;;;;;;5116498;27;20102;-79
2022/03/15 00:35:43;;;;;;;23.37;13.03;;;4.20;99.90;;;;;;5131786;27;20058;-80
2022/03/15 00:38:08;;;;;;;24.53;12.73;;;4.20;99.90;;;;;;5136632;27;20067;-80
2022/03/15 00:40:34;;;;;;;22.27;13.20;;;4.20;99.90;;;;;;5091208;27;20073;-80
2022/03/15 00:43:00;;;;;;;20.97;11.67;;;4.20;99.90;;;;;;5130813;27;20078;-79
2022/03/15 00:45:28;;;;;;;25.87;11.80;;;4.20;99.90;;;;;;5130704;27;20039;-80
2022/03/15 00:47:56;;;;;;;17.43;10.57;;;4.10;99.90;;;;;;5097024;27;20049;-80
2022/03/15 00:50:22;;;;;;;22.50;11.03;;;4.10;99.90;;;;;;5114101;28;20232;-79
2022/03/15 00:52:49;;;;;;;21.60;11.90;;;4.10;99.90;;;;;;5132930;27;20051;-80
2022/03/15 00:55:15;;;;;;;27.03;13.07;;;4.10;99.90;;;;;;5132680;27;20035;-80
2022/03/15 00:57:42;;;;;;;24.23;13.43;;;4.10;99.90;;;;;;5114353;27;20051;-80
2022/03/15 01:00:11;;;;;;;21.53;12.47;;;4.10;99.90;;;;;;5132224;27;20077;-80
2022/03/15 01:02:37;;;;;;;26.20;13.07;;;4.10;99.90;;;;;;5116305;27;20043;-79
2022/03/15 01:05:04;;;;;;;20.30;12.03;;;4.10;99.90;;;;;;5115519;27;20059;-79
2022/03/15 01:07:30;;;;;;;24.30;13.20;;;4.10;99.90;;;;;;5101857;27;20047;-80
2022/03/15 01:09:55;;;;;;;22.67;13.07;;;4.10;99.90;;;;;;5133627;27;20050;-80
2022/03/15 01:12:21;;;;;;;27.77;14.40;;;4.10;99.90;;;;;;5114745;27;20039;-80
2022/03/15 01:14:47;;;;;;;23.07;12.63;;;4.10;99.90;;;;;;5112387;27;20047;-81
2022/03/15 01:17:12;;;;;;;18.37;11.97;;;4.10;99.90;;;;;;5115859;27;20074;-80
2022/03/15 01:19:38;;;;;;;21.73;12.27;;;4.10;99.90;;;;;;5114754;27;20054;-81
2022/03/15 01:22:04;;;;;;;22.70;12.40;;;4.00;99.90;;;;;;5092923;27;20039;-79
2022/03/15 01:24:30;;;;;;;23.73;12.83;;;4.00;99.90;;;;;;5113414;27;20035;-80
2022/03/15 01:26:56;;;;;;;18.53;11.40;;;4.00;99.90;;;;;;5131768;27;20541;-80
2022/03/15 01:29:24;;;;;;;23.17;13.70;;;3.90;99.90;;;;;;5090337;27;20047;-80
2022/03/15 01:31:50;;;;;;;22.23;13.67;;;3.90;99.90;;;;;;5134213;27;20039;-81
2022/03/15 01:34:16;;;;;;;25.60;12.80;;;3.80;99.90;;;;;;5128913;27;20095;-80
2022/03/15 01:36:41;;;;;;;22.77;13.07;;;3.80;99.90;;;;;;5116760;27;20046;-80
2022/03/15 01:39:07;;;;;;;24.23;12.77;;;3.80;99.90;;;;;;5113352;28;20619;-80
2022/03/15 01:41:38;;;;;;;19.43;10.60;;;3.80;99.90;;;;;;5114763;28;20039;-80
2022/03/15 01:44:15;;;;;;;71.30;13.63;;;3.80;99.90;;;;;;5112575;28;20047;-80
2022/03/15 01:46:42;;;;;;;14.23;9.77;;;3.60;99.90;;;;;;5117148;28;20217;-80
2022/03/15 01:49:07;;;;;;;16.80;11.57;;;3.60;99.90;;;;;;5110991;28;20051;-80
2022/03/15 01:51:33;;;;;;;18.73;11.50;;;3.50;99.90;;;;;;5133940;28;20053;-80
2022/03/15 01:53:59;;;;;;;25.67;12.53;;;3.50;99.90;;;;;;5114765;28;20086;-80
2022/03/15 01:56:25;;;;;;;19.80;12.20;;;3.50;99.90;;;;;;5079173;28;20570;-80
2022/03/15 01:58:51;;;;;;;21.37;12.27;;;3.40;99.90;;;;;;5134215;28;20050;-80
2022/03/15 02:01:17;;;;;;;19.10;10.67;;;3.40;99.90;;;;;;5129646;28;20047;-80
2022/03/15 02:03:43;;;;;;;21.77;12.07;;;3.40;99.90;;;;;;5131332;28;20211;-81
2022/03/15 02:06:09;;;;;;;20.87;10.47;;;3.30;99.90;;;;;;5093320;28;20067;-81
2022/03/15 02:08:35;;;;;;;17.97;11.60;;;3.30;99.90;;;;;;5115514;28;20514;-80
2022/03/15 02:11:02;;;;;;;17.57;10.93;;;3.20;99.90;;;;;;5114938;28;20027;-81
2022/03/15 02:13:29;;;;;;;23.50;12.83;;;3.20;99.90;;;;;;5129416;28;20050;-80
2022/03/15 02:15:55;;;;;;;26.60;12.13;;;3.20;99.90;;;;;;5131111;28;20046;-79
2022/03/15 02:18:25;;;;;;;18.03;12.67;;;3.20;99.90;;;;;;5133436;28;20085;-80
2022/03/15 02:20:51;;;;;;;24.10;11.40;;;3.20;99.90;;;;;;5093965;27;20081;-80
2022/03/15 02:23:17;;;;;;;18.10;11.77;;;3.20;99.90;;;;;;5135630;27;20035;-79
2022/03/15 02:25:43;;;;;;;23.03;12.10;;;3.20;99.90;;;;;;5118772;27;20071;-81
2022/03/15 02:28:08;;;;;;;24.90;12.20;;;3.20;99.90;;;;;;5099736;27;20082;-80
2022/03/15 02:30:34;;;;;;;23.67;13.40;;;3.20;99.90;;;;;;5135369;27;20049;-80
2022/03/15 02:33:00;;;;;;;20.67;12.10;;;3.30;99.90;;;;;;5134661;27;20043;-80
2022/03/15 02:35:26;;;;;;;24.30;13.43;;;3.30;99.90;;;;;;5135108;27;20087;-80
2022/03/15 02:37:52;;;;;;;19.93;12.57;;;3.30;99.90;;;;;;5117902;27;20040;-81
2022/03/15 02:40:18;;;;;;;21.33;12.40;;;3.30;99.90;;;;;;5117920;27;20637;-80
2022/03/15 02:42:43;;;;;;;21.17;12.60;;;3.40;99.90;;;;;;5101994;27;20039;-80
2022/03/15 02:45:10;;;;;;;21.00;13.07;;;3.40;99.90;;;;;;5131696;27;20035;-80
2022/03/15 02:47:37;;;;;;;25.63;13.50;;;3.40;99.90;;;;;;5136079;27;20108;-79
2022/03/15 02:50:04;;;;;;;20.77;11.87;;;3.40;99.90;;;;;;5138692;27;20052;-78
2022/03/15 02:52:30;;;;;;;20.90;11.87;;;3.40;99.90;;;;;;5140241;27;20030;-80
2022/03/15 02:54:58;;;;;;;21.33;11.43;;;3.50;99.90;;;;;;5120561;27;20560;-80
2022/03/15 02:57:25;;;;;;;23.00;11.97;;;3.40;99.90;;;;;;5139950;27;20047;-80
2022/03/15 02:59:51;;;;;;;23.43;12.53;;;3.40;99.90;;;;;;5140923;27;20051;-80
2022/03/15 03:02:17;;;;;;;18.83;12.60;;;3.40;99.90;;;;;;5138964;27;20051;-80
2022/03/15 03:04:43;;;;;;;22.03;11.20;;;3.40;99.90;;;;;;5138209;27;20149;-80
2022/03/15 03:07:09;;;;;;;20.97;11.40;;;3.40;99.90;;;;;;5139443;27;20058;-80
2022/03/15 03:09:35;;;;;;;21.83;12.57;;;3.40;99.90;;;;;;5137796;27;20043;-80
2022/03/15 03:12:02;;;;;;;22.27;12.40;;;3.30;99.90;;;;;;5138473;27;20050;-79
2022/03/15 03:14:29;;;;;;;24.20;13.77;;;3.20;99.90;;;;;;5106680;27;20045;-80
2022/03/15 03:16:54;;;;;;;22.53;11.83;;;3.20;99.90;;;;;;5137763;27;20042;-80
2022/03/15 03:19:20;;;;;;;16.80;11.33;;;3.20;99.90;;;;;;5139740;27;20038;-81
2022/03/15 03:21:48;;;;;;;17.30;12.63;;;3.20;99.90;;;;;;5138446;27;20092;-80
2022/03/15 03:24:21;;;;;;;20.70;11.77;;;3.10;99.90;;;;;;5119548;27;20159;-80
2022/03/15 03:26:47;;;;;;;18.17;12.47;;;3.10;99.90;;;;;;5107781;27;20519;-81
2022/03/15 03:29:15;;;;;;;36.77;15.33;;;3.10;99.90;;;;;;5118574;27;20077;-80
2022/03/15 03:31:42;;;;;;;23.13;14.00;;;3.10;99.90;;;;;;5138974;27;20047;-80
2022/03/15 03:34:09;;;;;;;22.17;12.33;;;3.10;99.90;;;;;;5151800;27;20555;-80
2022/03/15 03:36:36;;;;;;;23.13;12.67;;;3.10;99.90;;;;;;5135174;27;20050;-80
2022/03/15 03:39:03;;;;;;;24.67;12.43;;;3.10;99.90;;;;;;5119176;27;20042;-80
2022/03/15 03:41:29;;;;;;;24.57;13.57;;;3.10;99.90;;;;;;5136965;27;20049;-80
2022/03/15 03:43:55;;;;;;;23.13;12.40;;;3.10;99.90;;;;;;5136067;27;20047;-81
2022/03/15 03:46:21;;;;;;;23.40;13.10;;;3.10;99.90;;;;;;5103996;27;20042;-81
2022/03/15 03:48:47;;;;;;;25.63;14.57;;;3.10;99.90;;;;;;5136500;27;20060;-81
2022/03/15 03:51:13;;;;;;;21.23;14.03;;;3.10;99.90;;;;;;5137268;27;20093;-80
2022/03/15 03:53:40;;;;;;;23.33;13.97;;;3.10;99.90;;;;;;5096905;27;20623;-79
2022/03/15 03:56:06;;;;;;;20.87;12.47;;;3.20;99.90;;;;;;5139379;27;20042;-81
2022/03/15 03:58:32;;;;;;;20.93;13.53;;;3.20;99.90;;;;;;5137016;27;20810;-80
2022/03/15 04:00:58;;;;;;;18.57;13.07;;;3.20;99.90;;;;;;5104077;27;20135;-81
2022/03/15 04:03:24;;;;;;;26.30;13.40;;;3.20;99.90;;;;;;5120953;27;20436;-80
2022/03/15 04:05:51;;;;;;;23.77;14.80;;;3.20;99.90;;;;;;5119408;27;20043;-80
2022/03/15 04:08:17;;;;;;;23.40;13.77;;;3.30;99.90;;;;;;5122468;27;20042;-80
2022/03/15 04:10:46;;;;;;;24.67;16.63;;;3.30;99.90;;;;;;5138302;27;20046;-79
2022/03/15 04:13:17;;;;;;;23.27;14.47;;;3.30;99.90;;;;;;5137896;27;20040;-79
2022/03/15 04:15:46;;;;;;;24.67;15.00;;;3.40;99.90;;;;;;5136900;27;20879;-80
2022/03/15 04:18:12;;;;;;;24.17;15.70;;;3.40;99.90;;;;;;5135262;27;20047;-80
2022/03/15 04:20:39;;;;;;;28.27;16.73;;;3.40;99.90;;;;;;5135890;27;21413;-80
2022/03/15 04:23:05;;;;;;;30.13;15.57;;;3.50;99.90;;;;;;5137500;27;20065;-79
2022/03/15 04:25:31;;;;;;;25.50;15.23;;;3.50;99.90;;;;;;5134201;27;20652;-78
2022/03/15 04:28:00;;;;;;;21.27;12.70;;;3.50;99.90;;;;;;5135711;27;20047;-80
2022/03/15 04:30:30;;;;;;;19.90;14.00;;;3.50;99.90;;;;;;5138179;27;20114;-80
2022/03/15 04:32:58;;;;;;;27.07;15.50;;;3.50;99.90;;;;;;5115792;27;20129;-79
2022/03/15 04:35:25;;;;;;;29.53;18.07;;;3.60;99.90;;;;;;5136045;27;20137;-79
2022/03/15 04:37:52;;;;;;;25.13;16.20;;;3.60;99.90;;;;;;5118401;27;20076;-79
2022/03/15 04:40:18;;;;;;;27.97;16.47;;;3.60;99.90;;;;;;5136038;27;20095;-80
2022/03/15 04:42:53;;;;;;;27.50;16.57;;;3.70;99.90;;;;;;5136874;27;20054;-79
2022/03/15 04:45:19;;;;;;;25.90;15.23;;;3.70;99.90;;;;;;5132715;27;20050;-80
2022/03/15 04:47:46;;;;;;;27.10;15.80;;;3.70;99.90;;;;;;5119534;27;20031;-80
2022/03/15 04:50:12;;;;;;;23.90;15.33;;;3.80;99.90;;;;;;5135479;27;20098;-80
2022/03/15 04:52:38;;;;;;;24.63;15.93;;;3.80;99.90;;;;;;5133226;27;20046;-80
2022/03/15 04:55:06;;;;;;;27.33;15.80;;;3.80;99.90;;;;;;5118754;27;20121;-80
2022/03/15 04:57:31;;;;;;;29.47;16.57;;;3.90;99.90;;;;;;5136050;27;20050;-80
2022/03/15 04:59:57;;;;;;;27.67;15.47;;;3.90;99.90;;;;;;5117658;27;20039;-79
2022/03/15 05:02:24;;;;;;;25.37;15.67;;;3.90;99.90;;;;;;5120318;27;20035;-79
2022/03/15 05:04:50;;;;;;;26.40;16.80;;;4.00;99.90;;;;;;5134638;27;20046;-79
2022/03/15 05:07:16;;;;;;;21.83;14.90;;;4.00;99.90;;;;;;5134236;27;20042;-80
2022/03/15 05:11:06;;;;;;;24.73;14.23;;;4.00;99.90;;;;;;5118565;27;20346;-80
2022/03/15 05:12:27;;;;;;;19.97;13.27;;;4.00;99.90;;;;;;5121089;27;20119;-79
2022/03/15 05:14:53;;;;;;;24.43;14.03;;;4.00;99.90;;;;;;5100163;27;20046;-80
2022/03/15 05:17:19;;;;;;;26.13;14.90;;;4.00;99.90;;;;;;5119001;27;20034;-80
2022/03/15 05:19:47;;;;;;;27.53;15.97;;;4.00;99.90;;;;;;5118771;27;20121;-81
2022/03/15 05:22:12;;;;;;;30.07;16.27;;;4.00;99.90;;;;;;5137714;27;20114;-79
2022/03/15 05:24:38;;;;;;;23.87;16.63;;;4.10;99.90;;;;;;5105008;27;20640;-79
2022/03/15 05:27:04;;;;;;;27.87;15.00;;;4.10;99.90;;;;;;5117989;27;20086;-80
2022/03/15 05:29:29;;;;;;;26.33;16.27;;;4.10;99.90;;;;;;5134395;27;20039;-80
2022/03/15 05:31:55;;;;;;;22.20;14.80;;;4.10;99.90;;;;;;5135488;27;20043;-79
2022/03/15 05:34:21;;;;;;;22.20;15.03;;;4.10;99.90;;;;;;5138723;27;20137;-80
2022/03/15 05:36:48;;;;;;;24.47;15.90;;;4.10;99.90;;;;;;5132361;27;20043;-80
2022/03/15 05:39:14;;;;;;;23.73;15.20;;;4.10;99.90;;;;;;5097453;27;20050;-79
2022/03/15 05:41:41;;;;;;;23.23;14.77;;;4.10;99.90;;;;;;5116205;27;20112;-81
2022/03/15 05:44:07;;;;;;;23.37;14.67;;;4.10;99.90;;;;;;5096227;27;20069;-79
2022/03/15 05:46:33;;;;;;;26.23;14.97;;;4.10;99.90;;;;;;5136377;27;20478;-81
2022/03/15 05:48:58;;;;;;;22.13;15.60;;;4.10;99.90;;;;;;5136880;27;20507;-79
2022/03/15 05:51:24;;;;;;;22.93;14.33;;;4.10;99.90;;;;;;5114825;28;20122;-81
2022/03/15 05:53:50;;;;;;;25.77;14.67;;;4.10;99.90;;;;;;5125216;28;20082;-80
2022/03/15 05:56:16;;;;;;;26.10;15.63;;;4.10;99.90;;;;;;5127735;27;20600;-82
2022/03/15 05:58:43;;;;;;;27.33;16.20;;;4.10;99.90;;;;;;5101341;27;20079;-80
2022/03/15 06:01:09;;;;;;;30.90;16.00;;;4.10;99.90;;;;;;5132750;27;20049;-79
2022/03/15 06:03:35;;;;;;;22.70;15.00;;;4.00;99.90;;;;;;5096267;27;20062;-80
2022/03/15 06:06:01;;;;;;;23.57;15.07;;;4.10;99.90;;;;;;5134248;27;20047;-80
2022/03/15 06:08:27;;;;;;;26.50;16.60;;;4.20;99.90;;;;;;5117891;27;20035;-80
2022/03/15 06:10:52;;;;;;;31.13;17.17;;;4.10;99.90;;;;;;5132495;27;20046;-81
2022/03/15 06:13:18;;;;;;;25.43;16.20;;;4.20;99.90;;;;;;5119612;27;20046;-81
2022/03/15 06:15:44;;;;;;;28.03;16.77;;;4.20;99.90;;;;;;5120215;27;20072;-82
2022/03/15 06:18:10;;;;;;;36.17;17.53;;;4.20;99.90;;;;;;5115214;27;20039;-78
2022/03/15 06:20:36;;;;;;;26.40;16.77;;;4.20;99.90;;;;;;5120084;27;20035;-79
2022/03/15 06:23:03;;;;;;;28.33;17.17;;;4.20;99.90;;;;;;5082494;27;20093;-79
2022/03/15 06:25:30;;;;;;;30.10;16.67;;;4.20;99.90;;;;;;5095024;27;20035;-80
2022/03/15 06:27:56;;;;;;;24.40;15.73;;;4.30;99.90;;;;;;5108409;28;20044;-81
2022/03/15 06:30:22;;;;;;;28.80;16.93;;;4.30;99.90;;;;;;5084145;28;20149;-79
2022/03/15 06:32:48;;;;;;;22.80;16.23;;;4.30;99.90;;;;;;5116277;27;20092;-78
2022/03/15 06:35:14;;;;;;;26.20;16.97;;;4.40;99.90;;;;;;5111371;27;20043;-78
2022/03/15 06:37:45;;;;;;;29.40;17.40;;;4.40;99.90;;;;;;5113149;27;20042;-77
2022/03/15 06:40:12;;;;;;;27.23;16.90;;;4.40;99.90;;;;;;5114605;28;20184;-78
2022/03/15 06:42:38;;;;;;;26.73;16.73;;;4.50;99.90;;;;;;5110446;27;20043;-77
2022/03/15 06:45:06;;;;;;;37.80;22.67;;;4.50;99.90;;;;;;5132299;27;20039;-78
2022/03/15 06:47:33;;;;;;;46.80;24.50;;;4.60;99.90;;;;;;5099561;27;20616;-78
2022/03/15 06:50:00;;;;;;;45.60;26.33;;;4.60;99.90;;;;;;5119454;27;20067;-78
2022/03/15 06:52:26;;;;;;;44.53;25.90;;;4.60;99.90;;;;;;5098005;28;20105;-78
2022/03/15 06:54:51;;;;;;;47.07;26.80;;;4.70;99.90;;;;;;5065423;28;20040;-78
2022/03/15 06:57:17;;;;;;;51.27;25.97;;;4.70;99.90;;;;;;5083835;28;20539;-77
2022/03/15 06:59:43;;;;;;;49.43;26.80;;;4.80;99.90;;;;;;5096284;28;20136;-79
2022/03/15 07:02:11;;;;;;;50.93;26.70;;;4.80;99.90;;;;;;5100275;28;20115;-78
2022/03/15 07:04:36;;;;;;;45.00;25.17;;;4.80;99.90;;;;;;5079895;28;20155;-78
2022/03/15 07:07:02;;;;;;;45.13;26.00;;;4.90;99.90;;;;;;5098917;28;20092;-78
2022/03/15 07:09:28;;;;;;;48.37;25.80;;;4.90;99.90;;;;;;5115487;28;20062;-78
2022/03/15 07:11:54;;;;;;;42.50;25.07;;;4.90;99.90;;;;;;5065968;28;20055;-78
2022/03/15 07:14:19;;;;;;;44.73;25.87;;;5.00;99.90;;;;;;5109411;28;20035;-78
2022/03/15 07:16:45;;;;;;;48.17;26.00;;;5.00;99.90;;;;;;5096760;28;20052;-78
2022/03/15 07:19:11;;;;;;;48.67;25.83;;;5.00;99.90;;;;;;5089483;28;20056;-78
2022/03/15 07:21:37;;;;;;;48.87;26.60;;;5.10;99.90;;;;;;5082048;28;20447;-78
2022/03/15 07:24:03;;;;;;;53.57;28.87;;;5.10;99.90;;;;;;5099093;28;20036;-78
2022/03/15 07:26:29;;;;;;;48.70;27.00;;;5.20;99.90;;;;;;5067215;28;20522;-77
2022/03/15 07:28:54;;;;;;;54.07;28.10;;;5.20;99.90;;;;;;5101192;28;20047;-78
2022/03/15 07:31:20;;;;;;;51.37;27.63;;;5.30;99.90;;;;;;5061903;28;20036;-78
2022/03/15 07:33:46;;;;;;;49.47;26.23;;;5.40;99.90;;;;;;5109901;28;20050;-78
2022/03/15 07:36:11;;;;;;;51.47;26.97;;;5.40;99.90;;;;;;5078690;28;20044;-78
2022/03/15 07:38:37;;;;;;;54.33;28.40;;;5.50;99.90;;;;;;5091950;28;20605;-78
2022/03/15 07:41:03;;;;;;;55.17;27.33;;;5.60;99.90;;;;;;5082069;28;20058;-78
2022/03/15 07:43:29;;;;;;;50.27;28.60;;;5.60;99.90;;;;;;5082263;28;20378;-79
2022/03/15 07:45:54;;;;;;;49.73;28.07;;;5.70;99.90;;;;;;5090489;28;20140;-78
2022/03/15 07:48:20;;;;;;;53.63;28.90;;;5.70;99.90;;;;;;5090572;28;20040;-79
2022/03/15 07:50:49;;;;;;;53.10;28.60;;;5.70;99.90;;;;;;5073578;28;20067;-78
2022/03/15 07:53:15;;;;;;;49.73;27.50;;;5.80;99.90;;;;;;5092635;28;20766;-78
2022/03/15 07:55:41;;;;;;;55.27;29.60;;;5.80;99.90;;;;;;5105553;28;20261;-78
2022/03/15 07:58:06;;;;;;;52.43;29.30;;;5.90;99.90;;;;;;5078213;28;20036;-78
2022/03/15 08:00:32;;;;;;;52.43;28.97;;;5.90;99.90;;;;;;5084940;28;20040;-78
2022/03/15 08:02:58;;;;;;;50.30;28.97;;;6.00;99.90;;;;;;5082100;28;20039;-78
2022/03/15 08:05:24;;;;;;;50.80;29.27;;;6.00;99.90;;;;;;5072894;28;20048;-79
2022/03/15 08:07:50;;;;;;;55.30;29.83;;;6.10;99.90;;;;;;5109181;28;20067;-78
2022/03/15 08:10:15;;;;;;;52.33;30.03;;;6.10;99.90;;;;;;5072094;28;20104;-78
2022/03/15 08:12:42;;;;;;;56.97;30.30;;;6.10;99.90;;;;;;5082020;28;20138;-78
2022/03/15 08:15:09;;;;;;;54.83;29.47;;;6.10;99.90;;;;;;5089239;28;20083;-78
2022/03/15 08:17:36;;;;;;;54.37;30.47;;;6.20;99.90;;;;;;5089524;28;20046;-78
2022/03/15 08:20:04;;;;;;;57.20;30.53;;;6.20;99.90;;;;;;5084553;28;20043;-78
2022/03/15 08:22:31;;;;;;;56.10;31.40;;;6.20;99.90;;;;;;5105439;28;20047;-78
2022/03/15 08:24:58;;;;;;;56.20;31.60;;;6.20;99.90;;;;;;5081191;28;21006;-78
2022/03/15 08:27:25;;;;;;;55.57;32.07;;;6.20;99.90;;;;;;5084243;28;20533;-78
2022/03/15 08:29:51;;;;;;;52.80;30.10;;;6.20;99.90;;;;;;5081018;28;20056;-78
2022/03/15 08:32:17;;;;;;;54.60;30.70;;;6.20;99.90;;;;;;5067441;28;20043;-78
2022/03/15 08:34:42;;;;;;;54.23;30.87;;;6.30;99.90;;;;;;5064385;28;20134;-78
2022/03/15 08:37:09;;;;;;;56.07;30.47;;;6.30;99.90;;;;;;5093449;28;20054;-78
2022/03/15 08:39:35;;;;;;;54.00;28.97;;;6.30;99.90;;;;;;5086641;28;20036;-78
2022/03/15 08:42:03;;;;;;;55.30;30.73;;;6.30;99.90;;;;;;5053236;28;20083;-78
2022/03/15 08:44:29;;;;;;;57.50;32.33;;;6.30;99.90;;;;;;5091463;28;20078;-78
2022/03/15 08:46:55;;;;;;;60.00;33.07;;;6.30;99.90;;;;;;5097584;28;20044;-78
2022/03/15 08:49:21;;;;;;;57.53;31.47;;;6.30;99.90;;;;;;5080071;28;20067;-78
2022/03/15 08:51:48;;;;;;;56.70;31.20;;;6.30;99.90;;;;;;5086696;28;20052;-78
2022/03/15 08:54:14;;;;;;;62.07;33.73;;;6.30;99.90;;;;;;5085769;28;20047;-78
2022/03/15 08:56:42;;;;;;;60.47;33.20;;;6.40;99.90;;;;;;5076625;28;20051;-78
2022/03/15 08:59:12;;;;;;;54.30;32.63;;;6.40;99.90;;;;;;5101909;27;20132;-78
2022/03/15 09:01:39;;;;;;;59.90;33.10;;;6.40;99.90;;;;;;5080120;28;20047;-78
2022/03/15 09:04:05;;;;;;;54.30;33.10;;;6.50;99.90;;;;;;5086935;28;20047;-78
2022/03/15 09:06:31;;;;;;;63.77;33.97;;;6.50;99.90;;;;;;5070699;28;20035;-79
2022/03/15 09:09:00;;;;;;;58.23;33.07;;;6.50;99.90;;;;;;5060641;28;20598;-78
2022/03/15 09:11:27;;;;;;;55.70;32.43;;;6.60;99.90;;;;;;5089486;28;20039;-78
2022/03/15 09:13:53;;;;;;;55.10;31.20;;;6.60;99.90;;;;;;5073273;28;20071;-78
2022/03/15 09:16:20;;;;;;;63.10;33.67;;;6.60;99.90;;;;;;5055922;28;20101;-78
2022/03/15 09:18:46;;;;;;;58.50;33.23;;;6.60;99.90;;;;;;5090620;28;20052;-79
2022/03/15 09:21:12;;;;;;;62.43;33.17;;;6.70;99.90;;;;;;5104250;28;20069;-78
2022/03/15 09:23:39;;;;;;;55.87;31.13;;;6.70;99.90;;;;;;5068248;28;20040;-78
2022/03/15 09:26:05;;;;;;;57.63;34.00;;;6.70;99.90;;;;;;5088971;28;20043;-78
2022/03/15 09:28:33;;;;;;;54.77;32.80;;;6.80;99.90;;;;;;5102003;28;20067;-78
2022/03/15 09:31:00;;;;;;;62.47;33.57;;;6.80;99.90;;;;;;5060385;28;20490;-79
2022/03/15 09:33:26;;;;;;;61.63;37.97;;;6.80;99.90;;;;;;5110832;28;20073;-78
2022/03/15 09:35:52;;;;;;;55.20;32.60;;;6.80;99.90;;;;;;5111037;27;20048;-78
2022/03/15 09:38:19;;;;;;;57.73;32.90;;;6.80;99.90;;;;;;5074224;28;20140;-78
2022/03/15 09:40:50;;;;;;;56.73;33.90;;;6.80;99.90;;;;;;5096886;28;20443;-78
2022/03/15 09:43:21;;;;;;;63.70;33.73;;;6.80;99.90;;;;;;5096857;28;20060;-78
2022/03/15 09:45:49;;;;;;;66.30;34.00;;;6.80;99.90;;;;;;5085426;28;20096;-78
2022/03/15 09:48:18;;;;;;;60.13;34.33;;;6.80;99.90;;;;;;5070632;28;20043;-78
2022/03/15 09:50:48;;;;;;;66.73;38.63;;;6.80;99.90;;;;;;5077869;27;20074;-78
2022/03/15 09:53:15;;;;;;;63.63;36.17;;;6.90;99.90;;;;;;5106063;27;20046;-78
2022/03/15 09:55:45;;;;;;;69.13;39.00;;;6.90;99.90;;;;;;5121503;28;20043;-78
2022/03/15 09:58:18;;;;;;;71.00;42.03;;;6.90;99.90;;;;;;5124710;27;20070;-78
2022/03/15 10:00:43;;;;;;;74.60;40.30;;;7.00;99.90;;;;;;5135403;27;20047;-77
2022/03/15 10:03:10;;;;;;;65.20;35.67;;;7.00;99.90;;;;;;5113345;27;20166;-78
2022/03/15 10:05:36;;;;;;;62.83;36.40;;;7.10;99.90;;;;;;5095723;27;20043;-78
2022/03/15 10:08:03;;;;;;;59.40;35.50;;;7.20;99.90;;;;;;5093068;27;20043;-78
2022/03/15 10:10:29;;;;;;;63.37;38.00;;;7.30;99.90;;;;;;5089952;28;20188;-78
2022/03/15 10:12:55;;;;;;;62.90;35.93;;;7.30;99.90;;;;;;5099827;28;20081;-78
2022/03/15 10:15:22;;;;;;;67.37;39.33;;;7.40;99.90;;;;;;5083977;27;20051;-78
2022/03/15 10:17:53;;;;;;;64.97;37.93;;;7.50;99.90;;;;;;5094940;28;20468;-78
2022/03/15 10:20:21;;;;;;;63.53;38.47;;;7.60;99.90;;;;;;5108944;28;20323;-77
2022/03/15 10:23:05;;;;;;;74.97;47.53;;;7.70;99.90;;;;;;5115715;27;20096;-77
2022/03/15 10:25:32;;;;;;;67.47;38.57;;;7.80;99.90;;;;;;5110885;27;20051;-78
2022/03/15 10:28:06;;;;;;;55.97;33.07;;;7.80;99.90;;;;;;5105497;27;20075;-78
2022/03/15 10:30:34;;;;;;;56.90;35.23;;;8.00;99.90;;;;;;5127088;28;20051;-77
2022/03/15 10:33:00;;;;;;;59.50;36.40;;;8.00;99.90;;;;;;5119884;27;20091;-78
2022/03/15 10:35:32;;;;;;;54.97;34.10;;;8.10;99.90;;;;;;5092615;27;20047;-77
2022/03/15 10:37:57;;;;;;;;;;;8.20;99.90;;;;;;5109907;27;20666;-78
2022/03/15 10:40:43;;;;;;;52.50;32.20;;;8.30;99.90;;;;;;5099794;28;19923;-78
2022/03/15 10:43:14;;;;;;;47.47;30.27;;;8.30;99.90;;;;;;5120175;27;20203;-78
2022/03/15 10:45:43;;;;;;;47.43;30.87;;;8.40;99.90;;;;;;5110479;27;20061;-78
2022/03/15 10:48:24;;;;;;;48.70;33.40;;;8.50;99.90;;;;;;5113470;27;20038;-78
2022/03/15 10:50:55;;;;;;;54.50;32.87;;;8.60;99.90;;;;;;5111392;27;20051;-77
2022/03/15 10:53:25;;;;;;;51.90;33.23;;;8.60;99.90;;;;;;5119077;27;20047;-78
2022/03/15 10:56:07;;;;;;;64.07;39.97;;;8.60;99.90;;;;;;5109776;27;20046;-78
2022/03/15 10:58:34;;;;;;;49.25;29.75;;;8.70;99.90;;;;;;5109878;27;20062;-78
2022/03/15 11:01:00;;;;;;;45.93;29.60;;;8.70;99.90;;;;;;5106891;27;20489;-78
2022/03/15 11:03:29;;;;;;;46.73;30.73;;;8.80;99.90;;;;;;5100009;27;20027;-78
2022/03/15 11:06:03;;;;;;;52.47;32.30;;;8.80;99.90;;;;;;5106954;27;20534;-78
2022/03/15 11:08:29;;;;;;;58.90;36.00;;;8.90;99.90;;;;;;5108687;27;20054;-78
2022/03/15 11:10:55;;;;;;;57.97;34.30;;;9.10;99.90;;;;;;5099786;27;20062;-78
2022/03/15 11:13:29;;;;;;;51.07;32.00;;;9.20;99.90;;;;;;5089216;27;20042;-78
2022/03/15 11:15:57;;;;;;;50.13;31.17;;;9.30;99.90;;;;;;5116713;27;20054;-78
2022/03/15 11:18:26;;;;;;;46.03;31.03;;;9.40;99.90;;;;;;5129268;27;20054;-78
2022/03/15 11:20:52;;;;;;;47.43;29.00;;;9.50;99.90;;;;;;5100912;27;20070;-78
2022/03/15 11:23:21;;;;;;;44.13;29.10;;;9.60;99.90;;;;;;5102617;27;20522;-78
2022/03/15 11:26:02;;;;;;;47.53;32.20;;;9.70;99.90;;;;;;5133196;27;20054;-78
2022/03/15 11:28:33;;;;;;;58.50;38.17;;;9.80;99.90;;;;;;5116640;27;20110;-77
2022/03/15 11:30:59;;;;;;;47.03;31.77;;;9.90;99.90;;;;;;5106402;27;20073;-77
2022/03/15 11:33:26;;;;;;;41.10;26.67;;;10.00;99.90;;;;;;5099201;27;20060;-78
2022/03/15 11:35:53;;;;;;;76.40;49.77;;;10.10;99.90;;;;;;5131310;27;20509;-77
2022/03/15 11:38:19;;;;;;;46.97;30.43;;;10.20;99.90;;;;;;5109280;27;20098;-78
2022/03/15 11:40:47;;;;;;;41.33;27.10;;;10.20;99.90;;;;;;5103079;27;20043;-78
2022/03/15 11:43:19;;;;;;;41.23;26.77;;;10.30;99.90;;;;;;5100368;27;20053;-78
2022/03/15 11:45:47;;;;;;;;;;;10.40;99.90;;;;;;5114485;27;20050;-78
2022/03/15 11:48:32;;;;;;;37.07;25.17;;;10.40;99.90;;;;;;5111745;27;19923;-77
2022/03/15 11:51:08;;;;;;;36.67;24.33;;;10.50;99.90;;;;;;5112563;27;20058;-78
2022/03/15 11:53:59;;;;;;;40.53;27.33;;;10.60;99.90;;;;;;5130672;27;20146;-78
2022/03/15 11:57:03;;;;;;;41.63;28.73;;;10.70;99.90;;;;;;5110681;27;20047;-78
2022/03/15 11:59:49;;;;;;;37.67;26.67;;;10.70;99.90;;;;;;5066467;27;20098;-78
2022/03/15 12:02:39;;;;;;;39.37;27.33;;;10.80;99.90;;;;;;5106073;27;20051;-77
2022/03/15 12:05:18;;;;;;;38.57;26.53;;;10.80;99.90;;;;;;5124330;27;20151;-76
2022/03/15 12:07:46;;;;;;;45.97;27.00;;;10.80;99.90;;;;;;5110957;27;20054;-77
2022/03/15 12:10:23;;;;;;;41.10;26.50;;;10.70;99.90;;;;;;5135383;27;20051;-78
2022/03/15 12:13:02;;;;;;;44.03;26.73;;;10.80;99.90;;;;;;5098628;27;20123;-78
2022/03/15 12:15:36;;;;;;;37.70;26.47;;;10.80;99.90;;;;;;5104327;27;20058;-78
2022/03/15 12:18:09;;;;;;;37.03;25.97;;;10.70;99.90;;;;;;5123991;27;20051;-77
2022/03/15 12:20:46;;;;;;;37.83;27.00;;;10.70;99.90;;;;;;5103160;27;20061;-78
2022/03/15 12:23:28;;;;;;;37.97;25.57;;;10.80;99.90;;;;;;5114689;27;20058;-77
2022/03/15 12:25:55;;;;;;;;;;;10.80;99.90;;;;;;5130061;27;20065;-77
2022/03/15 12:28:32;;;;;;;35.90;23.57;;;10.70;99.90;;;;;;5115162;27;19933;-78
2022/03/15 12:31:08;;;;;;;38.57;25.63;;;10.70;99.90;;;;;;5114789;27;20183;-78
2022/03/15 12:33:36;;;;;;;39.50;26.27;;;10.80;99.90;;;;;;5138680;27;20351;-78
2022/03/15 12:36:11;;;;;;;40.53;25.43;;;10.80;99.90;;;;;;5124922;27;20134;-77
2022/03/15 12:38:41;;;;;;;39.83;26.13;;;10.80;99.90;;;;;;5085389;27;20043;-78
2022/03/15 12:41:07;;;;;;;44.17;29.80;;;10.80;99.90;;;;;;5112163;27;20145;-78